createdAt,value
2023-05-09T00:00:43.539Z,102109.34
2023-05-09T00:03:45.619Z,102124.59
2023-05-09T00:06:47.701Z,102123.56
2023-05-09T00:09:49.954Z,102117.09
2023-05-09T00:12:52.745Z,102119.16
2023-05-09T00:15:54.860Z,102121.50
2023-05-09T00:19:02.880Z,102120.19
2023-05-09T00:22:09.327Z,102116.22
2023-05-09T00:25:12.317Z,102126.44
2023-05-09T00:28:14.656Z,102133.41
2023-05-09T00:31:16.923Z,102124.41
2023-05-09T00:34:19.077Z,102132.41
2023-05-09T00:37:22.037Z,102127.50
2023-05-09T00:40:24.191Z,102126.97
2023-05-09T00:43:27.093Z,102123.09
2023-05-09T00:46:29.179Z,102122.94
2023-05-09T00:49:31.618Z,102121.69
2023-05-09T00:52:34.934Z,102121.69
2023-05-09T00:55:37.149Z,102127.28
2023-05-09T00:58:40.244Z,102116.78
2023-05-09T01:01:44.548Z,102121.03
2023-05-09T01:04:47.258Z,102122.38
2023-05-09T01:08:09.580Z,102117.63
2023-05-09T01:11:21.434Z,102114.06
2023-05-09T01:15:14.629Z,102115.44
2023-05-09T01:18:16.936Z,102119.69
2023-05-09T01:21:28.535Z,102109.47
2023-05-09T01:24:52.547Z,102112.19
2023-05-09T01:28:22.684Z,102116.81
2023-05-09T01:31:27.537Z,102114.22
2023-05-09T01:34:32.743Z,102108.59
2023-05-09T01:37:39.742Z,102114.31
2023-05-09T01:40:55.464Z,102120.50
2023-05-09T01:44:02.574Z,102117.94
2023-05-09T01:47:08.143Z,102121.97
2023-05-09T01:50:15.679Z,102129.97
2023-05-09T01:53:19.343Z,102121.84
2023-05-09T01:56:23.760Z,102113.09
2023-05-09T01:59:29.757Z,102114.31
2023-05-09T02:02:32.988Z,102120.81
2023-05-09T02:05:37.139Z,102121.66
2023-05-09T02:08:39.429Z,102112.16
2023-05-09T02:11:42.496Z,102120.63
2023-05-09T02:14:44.652Z,102119.66
2023-05-09T02:17:47.129Z,102114.38
2023-05-09T02:20:49.821Z,102124.38
2023-05-09T02:23:55.306Z,102106.38
2023-05-09T02:26:57.791Z,102104.50
2023-05-09T02:30:04.350Z,102119.56
2023-05-09T02:33:09.184Z,102116.41
2023-05-09T02:36:12.620Z,102119.25
2023-05-09T02:39:15.101Z,102115.72
2023-05-09T02:42:22.258Z,102115.72
2023-05-09T02:45:26.299Z,102114.84
2023-05-09T02:48:28.911Z,102120.59
2023-05-09T02:51:31.432Z,102120.06
2023-05-09T02:54:34.016Z,102112.25
2023-05-09T02:57:37.735Z,102132.81
2023-05-09T03:00:40.956Z,102102.59
2023-05-09T03:03:44.189Z,102122.47
2023-05-09T03:06:46.940Z,102127.72
2023-05-09T03:09:49.109Z,102137.38
2023-05-09T03:12:51.343Z,102127.72
2023-05-09T03:15:54.520Z,102110.00
2023-05-09T03:18:59.905Z,102134.38
2023-05-09T03:22:08.017Z,102110.56
2023-05-09T03:25:45.385Z,102133.63
2023-05-09T03:28:49.004Z,102133.47
2023-05-09T03:31:51.198Z,102127.44
2023-05-09T03:34:57.204Z,102134.66
2023-05-09T03:38:00.290Z,102143.94
2023-05-09T03:41:02.621Z,102145.97
2023-05-09T03:44:05.847Z,102141.72
2023-05-09T03:47:08.196Z,102144.06
2023-05-09T03:50:22.252Z,102142.03
2023-05-09T03:53:27.681Z,102138.97
2023-05-09T03:56:30.660Z,102142.53
2023-05-09T03:59:33.187Z,102155.63
2023-05-09T04:02:44.693Z,102144.59
2023-05-09T04:05:57.237Z,102147.97
2023-05-09T04:09:07.758Z,102153.03
2023-05-09T04:12:11.026Z,102156.09
2023-05-09T04:15:13.806Z,102166.28
2023-05-09T04:18:16.368Z,102168.78
2023-05-09T04:21:20.664Z,102159.97
2023-05-09T04:24:48.555Z,102166.06
2023-05-09T04:27:52.722Z,102169.50
2023-05-09T04:30:55.343Z,102168.25
2023-05-09T04:34:00.147Z,102184.06
2023-05-09T04:37:04.169Z,102192.78
2023-05-09T04:40:09.153Z,102190.72
2023-05-09T04:43:20.405Z,102189.19
2023-05-09T04:46:24.994Z,102180.84
2023-05-09T04:49:28.200Z,102171.53
2023-05-09T04:52:38.565Z,102186.56
2023-05-09T04:55:41.222Z,102192.66
2023-05-09T04:58:45.444Z,102200.44
2023-05-09T05:01:49.224Z,102192.13
2023-05-09T05:05:06.220Z,102179.63
2023-05-09T05:08:15.985Z,102197.19
2023-05-09T05:11:18.720Z,102190.88
2023-05-09T05:14:23.593Z,102184.13
2023-05-09T05:17:29.483Z,102194.19
2023-05-09T05:20:34.275Z,102182.13
2023-05-09T05:23:39.217Z,102182.34
2023-05-09T05:26:41.386Z,102186.66
2023-05-09T05:29:44.615Z,102195.97
2023-05-09T05:32:46.970Z,102193.88
2023-05-09T05:35:52.098Z,102196.53
2023-05-09T05:38:55.987Z,102194.00
2023-05-09T05:41:58.986Z,102197.59
2023-05-09T05:45:05.334Z,102188.63
2023-05-09T05:48:10.513Z,102198.09
2023-05-09T05:51:12.955Z,102203.31
2023-05-09T05:54:17.174Z,102202.56
2023-05-09T05:57:22.662Z,102195.38
2023-05-09T06:00:25.862Z,102202.53
2023-05-09T06:03:40.533Z,102207.44
2023-05-09T06:06:44.082Z,102181.28
2023-05-09T06:09:46.136Z,102201.34
2023-05-09T06:12:48.291Z,102208.50
2023-05-09T06:15:51.026Z,102192.84
2023-05-09T06:18:57.517Z,102198.63
2023-05-09T06:21:59.607Z,102214.84
2023-05-09T06:25:08.702Z,102216.06
2023-05-09T06:29:10.008Z,102211.44
2023-05-09T06:32:41.633Z,102188.06
2023-05-09T06:39:05.550Z,102208.50
2023-05-09T06:42:07.690Z,102202.38
2023-05-09T06:45:13.718Z,102208.16
2023-05-09T06:48:16.012Z,102192.06
2023-05-09T06:51:18.205Z,102208.94
2023-05-09T06:54:20.602Z,102198.88
2023-05-09T06:57:25.448Z,102190.06
2023-05-09T07:00:29.806Z,102195.38
2023-05-09T07:03:31.942Z,102196.56
2023-05-09T07:06:34.305Z,102198.84
2023-05-09T07:09:37.109Z,102203.75
2023-05-09T07:12:41.898Z,102193.69
2023-05-09T07:15:44.299Z,102199.66
2023-05-09T07:18:47.711Z,102202.19
2023-05-09T07:21:50.097Z,102201.19
2023-05-09T07:24:52.245Z,102207.13
2023-05-09T07:27:54.366Z,102204.56
2023-05-09T07:30:56.964Z,102200.81
2023-05-09T07:33:59.060Z,102203.00
2023-05-09T07:37:01.387Z,102203.00
2023-05-09T07:40:06.034Z,102200.84
2023-05-09T07:43:08.201Z,102206.28
2023-05-09T07:46:10.703Z,102212.22
2023-05-09T07:49:13.274Z,102205.59
2023-05-09T07:52:15.327Z,102205.78
2023-05-09T07:55:17.859Z,102208.84
2023-05-09T07:58:20.290Z,102211.91
2023-05-09T08:01:22.568Z,102213.41
2023-05-09T08:04:24.804Z,102211.41
2023-05-09T08:07:26.981Z,102212.91
2023-05-09T08:10:34.755Z,102216.16
2023-05-09T08:13:36.880Z,102204.06
2023-05-09T08:16:39.030Z,102201.16
2023-05-09T08:19:41.833Z,102202.22
2023-05-09T08:22:45.236Z,102200.34
2023-05-09T08:25:57.465Z,102213.44
2023-05-09T08:29:04.530Z,102216.31
2023-05-09T08:32:09.275Z,102201.19
2023-05-09T08:35:13.630Z,102219.22
2023-05-09T08:38:18.794Z,102201.19
2023-05-09T08:41:28.423Z,102211.53
2023-05-09T08:44:32.456Z,102222.41
2023-05-09T08:47:37.424Z,102211.53
2023-05-09T08:50:41.403Z,102201.50
2023-05-09T08:53:44.541Z,102208.13
2023-05-09T08:56:50.387Z,102208.81
2023-05-09T08:59:55.539Z,102208.81
2023-05-09T09:03:01.408Z,102202.69
2023-05-09T09:06:03.918Z,102200.28
2023-05-09T09:09:09.015Z,102201.16
2023-05-09T09:20:06.338Z,102214.63
2023-05-09T09:23:32.361Z,102209.50
2023-05-09T09:30:51.686Z,102213.75
2023-05-09T09:34:02.464Z,102206.28
2023-05-09T09:37:11.108Z,102212.88
2023-05-09T09:40:15.059Z,102224.63
2023-05-09T09:43:45.261Z,102221.22
2023-05-09T09:50:50.526Z,102236.16
2023-05-09T09:53:52.615Z,102216.47
2023-05-09T09:56:55.343Z,102218.53
2023-05-09T10:00:01.506Z,102217.16
2023-05-09T10:03:07.390Z,102214.78
2023-05-09T10:06:15.780Z,102205.59
2023-05-09T10:09:18.475Z,102202.53
2023-05-09T10:12:23.620Z,102204.06
2023-05-09T10:15:27.721Z,102206.59
2023-05-09T10:18:33.984Z,102201.56
2023-05-09T10:21:39.321Z,102203.41
2023-05-09T10:24:57.627Z,102195.72
2023-05-09T10:28:02.944Z,102191.47
2023-05-09T10:31:14.092Z,102191.31
2023-05-09T10:34:21.304Z,102187.56
2023-05-09T10:37:23.501Z,102196.41
2023-05-09T10:40:26.178Z,102180.44
2023-05-09T10:43:29.482Z,102182.09
2023-05-09T10:46:32.404Z,102178.34
2023-05-09T10:49:37.076Z,102175.13
2023-05-09T10:53:04.335Z,102185.03
2023-05-09T10:56:06.903Z,102180.59
2023-05-09T10:59:36.579Z,102171.09
2023-05-09T11:02:39.343Z,102168.38
2023-05-09T11:05:42.543Z,102165.47
2023-05-09T11:08:44.529Z,102158.31
2023-05-09T11:11:53.614Z,102152.88
2023-05-09T11:15:06.085Z,102133.66
2023-05-09T11:18:11.200Z,102142.63
2023-05-09T11:21:13.311Z,102144.34
2023-05-09T11:24:19.891Z,102138.38
2023-05-09T11:27:53.863Z,102145.72
2023-05-09T11:31:19.322Z,102142.84
2023-05-09T11:38:10.467Z,102128.91
2023-05-09T11:41:50.288Z,102128.09
2023-05-09T11:44:54.545Z,102145.41
2023-05-09T11:48:00.792Z,102136.78
2023-05-09T11:51:05.021Z,102139.50
2023-05-09T11:54:15.698Z,102142.38
2023-05-09T11:57:18.090Z,102128.75
2023-05-09T12:00:22.863Z,102140.13
2023-05-09T12:03:26.262Z,102129.25
2023-05-09T12:06:30.574Z,102129.25
2023-05-09T12:09:38.303Z,102133.66
2023-05-09T12:12:49.145Z,102129.78
2023-05-09T12:16:03.320Z,102117.06
2023-05-09T12:19:05.936Z,102111.94
2023-05-09T12:22:15.008Z,102110.94
2023-05-09T12:25:17.374Z,102107.19
2023-05-09T12:28:24.005Z,102111.25
2023-05-09T12:31:29.020Z,102113.91
2023-05-09T12:34:32.361Z,102122.78
2023-05-09T12:37:34.457Z,102113.44
2023-05-09T12:40:37.238Z,102102.44
2023-05-09T12:43:40.374Z,102106.69
2023-05-09T12:46:53.787Z,102104.13
2023-05-09T12:50:04.414Z,102107.53
2023-05-09T12:53:07.239Z,102096.19
2023-05-09T12:56:14.661Z,102101.44
2023-05-09T12:59:21.209Z,102091.91
2023-05-09T13:02:23.229Z,102088.69
2023-05-09T13:05:26.149Z,102090.56
2023-05-09T13:08:29.965Z,102081.91
2023-05-09T13:11:32.499Z,102092.94
2023-05-09T13:14:39.511Z,102091.59
2023-05-09T13:21:35.198Z,102076.63
2023-05-09T13:25:02.274Z,102088.34
2023-05-09T13:28:10.790Z,102085.44
2023-05-09T13:37:01.368Z,102070.69
2023-05-09T13:44:29.804Z,102077.97
2023-05-09T13:51:03.857Z,102065.97
2023-05-09T13:54:10.574Z,102075.66
2023-05-09T13:57:13.154Z,102073.59
2023-05-09T14:00:18.464Z,102080.06
2023-05-09T14:03:20.829Z,102080.38
2023-05-09T14:06:22.879Z,102074.94
2023-05-09T14:09:25.015Z,102076.84
2023-05-09T14:12:29.024Z,102076.34
2023-05-09T14:15:32.121Z,102065.97
2023-05-09T14:18:35.421Z,102070.22
2023-05-09T14:21:37.973Z,102071.91
2023-05-09T14:24:40.864Z,102069.50
2023-05-09T14:27:43.134Z,102066.97
2023-05-09T14:30:45.183Z,102053.72
2023-05-09T14:33:47.666Z,102055.28
2023-05-09T14:36:50.432Z,102052.91
2023-05-09T14:39:53.401Z,102045.75
2023-05-09T14:43:00.313Z,102050.34
2023-05-09T14:46:04.953Z,102045.94
2023-05-09T14:49:11.889Z,102045.44
2023-05-09T14:52:43.722Z,102036.75
2023-05-09T14:55:51.601Z,102035.91
2023-05-09T15:02:14.480Z,102024.91
2023-05-09T15:05:18.671Z,102034.22
2023-05-09T15:08:28.412Z,102028.78
2023-05-09T15:11:43.296Z,102021.50
2023-05-09T15:14:53.846Z,102029.13
2023-05-09T15:17:58.024Z,102027.25
2023-05-09T15:21:14.401Z,102015.72
2023-05-09T15:27:42.196Z,102028.28
2023-05-09T15:30:46.144Z,102021.50
2023-05-09T15:33:53.127Z,102018.44
2023-05-09T15:36:56.810Z,102009.94
2023-05-09T15:39:59.774Z,102006.56
2023-05-09T15:43:08.113Z,102006.91
2023-05-09T15:46:37.169Z,102011.63
2023-05-09T15:49:41.737Z,101986.34
2023-05-09T15:52:46.427Z,101997.22
2023-05-09T15:55:57.577Z,102005.53
2023-05-09T15:59:04.571Z,102002.31
2023-05-09T16:02:08.126Z,102002.81
2023-05-09T16:05:16.543Z,101995.84
2023-05-09T16:08:18.989Z,102000.28
2023-05-09T16:11:21.900Z,101997.22
2023-05-09T16:14:25.200Z,101992.63
2023-05-09T16:17:27.617Z,101986.50
2023-05-09T16:20:29.586Z,101986.81
2023-05-09T16:23:34.226Z,101981.63
2023-05-09T16:26:39.312Z,101980.97
2023-05-09T16:29:41.736Z,101981.69
2023-05-09T16:32:43.815Z,101980.66
2023-05-09T16:35:46.165Z,101987.31
2023-05-09T16:38:48.357Z,101980.78
2023-05-09T16:41:50.545Z,101979.06
2023-05-09T16:44:53.495Z,101984.28
2023-05-09T16:48:00.074Z,101991.03
2023-05-09T16:51:07.469Z,101986.50
2023-05-09T16:54:10.759Z,101981.28
2023-05-09T16:57:13.447Z,101977.50
2023-05-09T17:00:30.885Z,101974.31
2023-05-09T17:03:33.170Z,101978.59
2023-05-09T17:06:36.457Z,101973.09
2023-05-09T17:09:38.974Z,101977.50
2023-05-09T17:12:41.164Z,101985.41
2023-05-09T17:15:43.674Z,101982.53
2023-05-09T17:19:12.381Z,101983.56
2023-05-09T17:22:15.501Z,101977.84
2023-05-09T17:25:18.360Z,101970.03
2023-05-09T17:28:33.545Z,101975.06
2023-05-09T17:31:38.310Z,101970.28
2023-05-09T17:34:41.279Z,101974.97
2023-05-09T17:37:43.454Z,101972.25
2023-05-09T17:40:46.026Z,101977.06
2023-05-09T17:43:51.361Z,101978.66
2023-05-09T17:46:53.441Z,101969.09
2023-05-09T17:50:01.511Z,101978.94
2023-05-09T17:53:04.432Z,101981.38
2023-05-09T17:56:10.088Z,101988.03
2023-05-09T17:59:12.423Z,101982.00
2023-05-09T18:02:17.056Z,101984.34
2023-05-09T18:05:26.819Z,101987.81
2023-05-09T18:08:30.664Z,101987.81
2023-05-09T18:11:33.513Z,101999.53
2023-05-09T18:14:36.490Z,102005.22
2023-05-09T18:17:38.967Z,101971.34
2023-05-09T18:20:41.915Z,101979.59
2023-05-09T18:23:53.594Z,101996.28
2023-05-09T18:26:56.908Z,101989.84
2023-05-09T18:30:02.910Z,101970.69
2023-05-09T18:33:09.669Z,101980.03
2023-05-09T18:36:12.961Z,101989.63
2023-05-09T18:39:19.643Z,101986.44
2023-05-09T18:42:26.548Z,102010.50
2023-05-09T18:45:30.970Z,102001.03
2023-05-09T18:48:33.685Z,102003.59
2023-05-09T18:51:42.289Z,102005.06
2023-05-09T18:54:44.773Z,102008.78
2023-05-09T18:57:47.124Z,102009.47
2023-05-09T19:00:51.534Z,102013.53
2023-05-09T19:03:55.403Z,102009.31
2023-05-09T19:06:59.546Z,101999.91
2023-05-09T19:10:02.972Z,101996.13
2023-05-09T19:13:14.678Z,102000.66
2023-05-09T19:16:21.107Z,101995.63
2023-05-09T19:19:26.463Z,101991.47
2023-05-09T19:22:35.245Z,101998.44
2023-05-09T19:25:45.788Z,102005.69
2023-05-09T19:28:48.068Z,101993.50
2023-05-09T19:31:52.338Z,101990.13
2023-05-09T19:34:54.342Z,101997.97
2023-05-09T19:37:56.391Z,101980.56
2023-05-09T19:41:01.969Z,101996.41
2023-05-09T19:44:10.550Z,101986.09
2023-05-09T19:47:13.008Z,101992.88
2023-05-09T19:50:15.259Z,101991.75
2023-05-09T19:53:18.060Z,101989.44
2023-05-09T19:56:20.083Z,101992.59
2023-05-09T19:59:25.329Z,101978.28
2023-05-09T20:02:28.296Z,101983.81
2023-05-09T20:05:30.494Z,101990.38
2023-05-09T20:08:32.694Z,101986.44
2023-05-09T20:11:34.777Z,101983.00
2023-05-09T20:14:37.299Z,101983.94
2023-05-09T20:17:40.991Z,101974.47
2023-05-09T20:20:43.493Z,101985.53
2023-05-09T20:23:46.182Z,101985.41
2023-05-09T20:26:48.529Z,101983.56
2023-05-09T20:29:51.421Z,101978.09
2023-05-09T20:32:55.228Z,101963.50
2023-05-09T20:35:57.597Z,101960.69
2023-05-09T20:38:59.701Z,101963.50
2023-05-09T20:42:02.519Z,101965.56
2023-05-09T20:45:05.543Z,101951.47
2023-05-09T20:48:08.085Z,101951.13
2023-05-09T20:51:11.315Z,101948.41
2023-05-09T20:54:16.739Z,101943.09
2023-05-09T20:57:18.989Z,101942.00
2023-05-09T21:00:21.461Z,101960.38
2023-05-09T21:03:24.419Z,101951.34
2023-05-09T21:06:27.040Z,101954.09
2023-05-09T21:09:29.347Z,101953.03
2023-05-09T21:12:33.383Z,101958.19
2023-05-09T21:15:36.619Z,101952.44
2023-05-09T21:18:39.460Z,101955.47
2023-05-09T21:21:43.720Z,101953.34
2023-05-09T21:24:46.231Z,101956.31
2023-05-09T21:27:50.359Z,101941.47
2023-05-09T21:30:54.257Z,101945.13
2023-05-09T21:33:57.874Z,101950.47
2023-05-09T21:37:00.713Z,101947.16
2023-05-09T21:40:12.356Z,101949.91
2023-05-09T21:43:15.787Z,101932.09
2023-05-09T21:46:19.556Z,101941.50
2023-05-09T21:49:22.325Z,101922.13
2023-05-09T21:52:28.383Z,101924.28
2023-05-09T21:55:30.603Z,101923.97
2023-05-09T21:58:32.767Z,101923.69
2023-05-09T22:01:35.086Z,101929.97
2023-05-09T22:04:37.366Z,101936.97
2023-05-09T22:07:39.485Z,101924.22
2023-05-09T22:10:42.073Z,101926.78
2023-05-09T22:13:44.848Z,101919.16
2023-05-09T22:16:46.964Z,101932.47
2023-05-09T22:19:50.092Z,101921.78
2023-05-09T22:22:52.349Z,101925.03
2023-05-09T22:25:55.584Z,101927.06
2023-05-09T22:28:58.124Z,101916.38
2023-05-09T22:32:04.275Z,101918.28
2023-05-09T22:35:08.205Z,101913.88
2023-05-09T22:38:10.674Z,101919.50
2023-05-09T22:41:13.562Z,101909.97
2023-05-09T22:44:15.870Z,101918.47
2023-05-09T22:47:19.593Z,101917.97
2023-05-09T22:50:22.020Z,101915.44
2023-05-09T22:53:24.221Z,101917.63
2023-05-09T22:56:27.438Z,101915.94
2023-05-09T22:59:29.504Z,101908.47
2023-05-09T23:02:33.177Z,101907.63
2023-05-09T23:05:36.954Z,101905.09
2023-05-09T23:08:39.713Z,101905.41
2023-05-09T23:11:42.375Z,101898.13
2023-05-09T23:14:44.881Z,101892.53
2023-05-09T23:17:47.208Z,101891.31
2023-05-09T23:20:50.033Z,101886.06
2023-05-09T23:23:52.278Z,101883.53
2023-05-09T23:26:54.389Z,101880.84
2023-05-09T23:29:58.120Z,101880.13
2023-05-09T23:33:00.249Z,101882.19
2023-05-09T23:36:03.634Z,101874.53
2023-05-09T23:39:05.955Z,101880.66
2023-05-09T23:42:08.278Z,101871.81
2023-05-09T23:45:10.776Z,101867.25
2023-05-09T23:48:12.908Z,101869.44
2023-05-09T23:51:15.048Z,101859.78
2023-05-09T23:54:17.577Z,101864.19
2023-05-09T23:57:19.736Z,101870.44
